Mazatlan, SIN, Mexico
Current Conditions -  °F | °C
As of 4:47 AM on Sunday 25 Jan 2015 (Local Time) from MMMZ Reporting Station
Broken Clouds Broken Clouds  
Wind Chill: 55°   Ceiling: 23000
Heat Index: 55°   Visibility: 10mi
Dew Point: 54°   Wind: 7mph
Humidity: 94%   Direction: 60°ENE
Pressure: 29.91"   Gusts: NA
Location:  23.22°N, 106.42°W
Report Text: MMMZ 251147Z 06006KT 10SM BKN230 13/12 A2991 RMK SLP128 57003 900 8/002 HZY
Loading
Personal Weather Stations






























Interactive Weather Map New forecast layout! Learn more

10-Day Weather Forecast

Advertisements
Track Severe Weather on mobile